Terminal Aerodrome Forecast
Issued by NWS Cleveland, OH

Home | Current Version | Previous Version | Text Only | Print | Product List | Glossary Off
Versions: 1 2 3 4 5 6 7 8 9 10 11 12 13 14 15

000
FTUS41 KCLE 312207 AAA
TAFTOL
TAF AMD
KTOL 312207Z 3122/0118 04015KT P6SM SCT008 OVC015
      TEMPO 3122/3124 -RA BKN008 OVC015
     FM010400 01008KT P6SM OVC015=

USA.gov is the U.S. government's official web portal to all federal, state and local government web resources and services.